Time;durP1;ratioP1;P1;durP2;ratioP2;P2;SDS_P1;SDS_P2;PMS_P1;PMS_P2;Temp;Humidity;BMP_temperature;BMP_pressure;BME280_temperature;BME280_humidity;BME280_pressure;Samples;Min_cycle;Max_cycle;Signal;HPM_P1;HPM_P2
2022/03/25 00:01:41;;;;;;;66.63;40.22;;;;;;;8.33;68.87;102875.97;5028567;28;20136;-57
2022/03/25 00:04:07;;;;;;;66.10;39.22;;;;;;;8.20;69.04;102871.44;5021946;28;20052;-57
2022/03/25 00:06:32;;;;;;;70.45;40.42;;;;;;;8.14;69.25;102871.81;5027823;28;20461;-57
2022/03/25 00:08:57;;;;;;;66.38;41.20;;;;;;;8.14;69.56;102871.81;5030472;28;20096;-57
2022/03/25 00:11:22;;;;;;;69.88;41.22;;;;;;;8.12;69.46;102870.22;5029824;28;20384;-57
2022/03/25 00:13:48;;;;;;;68.03;40.28;;;;;;;8.19;69.33;102872.38;5028777;28;20049;-56
2022/03/25 00:16:13;;;;;;;63.85;38.92;;;;;;;8.16;70.31;102869.97;5028348;28;20038;-56
2022/03/25 00:18:39;;;;;;;72.57;41.33;;;;;;;8.09;70.24;102876.53;5027796;28;20028;-57
2022/03/25 00:21:05;;;;;;;68.15;41.53;;;;;;;8.11;70.13;102877.31;5030991;28;20029;-57
2022/03/25 00:23:30;;;;;;;68.78;40.58;;;;;;;8.14;69.66;102863.91;5034939;28;20022;-57
2022/03/25 00:25:56;;;;;;;70.28;41.58;;;;;;;8.10;70.24;102880.03;5028167;28;20469;-57
2022/03/25 00:28:22;;;;;;;68.38;40.58;;;;;;;8.17;69.69;102876.94;5040254;28;20369;-57
2022/03/25 00:30:49;;;;;;;66.22;40.70;;;;;;;8.12;70.59;102883.44;5029803;28;20501;-57
2022/03/25 00:33:15;;;;;;;67.97;40.58;;;;;;;8.07;69.71;102879.31;5034649;28;20040;-57
2022/03/25 00:35:41;;;;;;;65.10;39.30;;;;;;;8.06;70.16;102879.38;5030838;28;20372;-57
2022/03/25 00:38:06;;;;;;;65.97;40.22;;;;;;;7.90;70.09;102885.59;5033435;28;20455;-57
2022/03/25 00:40:31;;;;;;;66.75;40.40;;;;;;;7.84;70.71;102883.31;5028304;28;20047;-57
2022/03/25 00:42:57;;;;;;;72.97;41.28;;;;;;;7.87;70.48;102872.59;5035407;28;20041;-57
2022/03/25 00:45:22;;;;;;;70.55;42.17;;;;;;;7.67;71.07;102873.78;5031908;28;20057;-57
2022/03/25 00:47:48;;;;;;;75.88;43.55;;;;;;;7.58;70.51;102869.91;5045788;28;20109;-57
2022/03/25 00:50:14;;;;;;;69.50;41.42;;;;;;;7.63;71.35;102878.41;5031096;28;20097;-57
2022/03/25 00:52:39;;;;;;;64.38;40.28;;;;;;;7.65;71.21;102876.50;5029744;28;20095;-57
2022/03/25 00:55:06;;;;;;;63.78;40.13;;;;;;;7.69;70.57;102873.72;5031822;28;20029;-57
2022/03/25 00:57:31;;;;;;;64.18;39.15;;;;;;;7.65;70.58;102871.22;5032889;28;20072;-57
2022/03/25 00:59:57;;;;;;;65.38;39.30;;;;;;;7.58;71.19;102876.97;5032785;28;20436;-57
2022/03/25 01:02:22;;;;;;;66.15;40.15;;;;;;;7.49;70.88;102873.09;5031984;28;20132;-57
2022/03/25 01:04:48;;;;;;;73.63;39.85;;;;;;;7.40;71.05;102867.41;5031392;28;20772;-57
2022/03/25 01:07:14;;;;;;;73.72;39.80;;;;;;;7.29;72.21;102872.47;5032264;28;20037;-57
2022/03/25 01:09:39;;;;;;;68.50;39.75;;;;;;;7.38;71.77;102873.72;5032469;28;20051;-57
2022/03/25 01:12:06;;;;;;;65.53;40.25;;;;;;;7.39;71.67;102875.41;5033642;28;20471;-56
2022/03/25 01:14:31;;;;;;;75.47;40.67;;;;;;;7.30;71.63;102876.81;5032151;28;20041;-57
2022/03/25 01:16:57;;;;;;;67.07;40.28;;;;;;;7.32;72.48;102880.22;5044733;28;20038;-57
2022/03/25 01:19:22;;;;;;;70.57;40.45;;;;;;;7.21;72.34;102878.19;5030240;28;20041;-57
2022/03/25 01:21:47;;;;;;;68.95;41.15;;;;;;;7.15;72.90;102873.25;5032575;28;20472;-57
2022/03/25 01:24:13;;;;;;;64.00;41.13;;;;;;;7.21;72.67;102882.63;5033921;28;20057;-57
2022/03/25 01:26:39;;;;;;;71.00;41.65;;;;;;;7.18;72.76;102878.38;5029265;28;20038;-57
2022/03/25 01:29:05;;;;;;;71.15;40.78;;;;;;;7.23;72.64;102873.69;5029098;28;20079;-56
2022/03/25 01:31:30;;;;;;;65.85;40.05;;;;;;;7.16;72.72;102874.13;5026327;28;20396;-57
2022/03/25 01:33:56;;;;;;;74.25;40.83;;;;;;;7.09;72.15;102869.22;5031807;28;20476;-57
2022/03/25 01:36:22;;;;;;;75.28;40.63;;;;;;;7.12;72.36;102871.66;5032359;28;20059;-57
2022/03/25 01:38:47;;;;;;;68.80;40.08;;;;;;;7.13;72.51;102868.09;5031846;28;20107;-57
2022/03/25 01:41:16;;;;;;;67.50;39.47;;;;;;;7.06;72.11;102864.09;5030794;28;20041;-57
2022/03/25 01:43:44;;;;;;;67.88;40.05;;;;;;;6.86;74.64;102863.44;5031281;28;20480;-57
2022/03/25 01:46:09;;;;;;;64.30;38.50;;;;;;;7.01;73.57;102868.81;5029881;28;20033;-57
2022/03/25 01:48:34;;;;;;;69.63;39.80;;;;;;;6.91;73.24;102854.44;5030293;28;20040;-56
2022/03/25 01:51:00;;;;;;;67.40;39.53;;;;;;;6.93;72.52;102863.09;5031836;28;20080;-57
2022/03/25 01:53:26;;;;;;;69.55;39.63;;;;;;;6.80;74.36;102866.44;5030977;28;20030;-57
2022/03/25 01:55:56;;;;;;;64.07;39.20;;;;;;;6.94;73.95;102872.72;5031544;28;20088;-57
2022/03/25 01:58:22;;;;;;;67.55;38.70;;;;;;;6.84;73.63;102870.59;5031726;28;20033;-57
2022/03/25 02:00:48;;;;;;;63.67;38.83;;;;;;;6.78;72.93;102865.69;5027399;28;20053;-57
2022/03/25 02:03:13;;;;;;;62.97;38.63;;;;;;;6.85;73.01;102866.16;5029759;28;20060;-56
2022/03/25 02:05:40;;;;;;;63.53;38.33;;;;;;;6.77;72.46;102869.25;5031550;28;20492;-56
2022/03/25 02:08:06;;;;;;;65.18;36.83;;;;;;;6.75;72.09;102871.09;5028094;28;20667;-57
2022/03/25 02:10:31;;;;;;;72.07;37.83;;;;;;;6.74;71.69;102869.41;5031661;28;20145;-57
2022/03/25 02:12:56;;;;;;;67.00;38.70;;;;;;;6.72;71.70;102868.66;5030731;28;20080;-56
2022/03/25 02:15:43;;;;;;;62.30;37.22;;;;;;;6.69;71.56;102858.28;5028812;28;20113;-56
2022/03/25 02:18:12;;;;;;;59.67;36.47;;;;;;;6.59;71.12;102861.44;5023865;28;20038;-57
2022/03/25 02:20:38;;;;;;;63.25;36.85;;;;;;;6.63;71.89;102877.94;5029805;28;20504;-57
2022/03/25 02:23:04;;;;;;;57.00;35.25;;;;;;;6.64;70.88;102866.44;5032907;28;20030;-56
2022/03/25 02:25:31;;;;;;;60.60;35.35;;;;;;;6.59;70.89;102866.72;5022693;28;20104;-57
2022/03/25 02:27:58;;;;;;;59.60;35.03;;;;;;;6.53;70.34;102861.78;5030944;28;20035;-56
2022/03/25 02:30:24;;;;;;;54.65;34.08;;;;;;;6.59;70.09;102861.44;5026358;28;20081;-58
2022/03/25 02:32:49;;;;;;;57.55;34.08;;;;;;;6.57;69.88;102873.84;5030581;28;20030;-56
2022/03/25 02:35:15;;;;;;;53.75;32.67;;;;;;;6.61;69.47;102860.50;5029599;28;20539;-56
2022/03/25 02:37:40;;;;;;;53.35;33.40;;;;;;;6.53;69.53;102859.16;5027521;28;20060;-57
2022/03/25 02:40:06;;;;;;;55.85;33.70;;;;;;;6.57;68.14;102867.72;5029404;28;20148;-57
2022/03/25 02:42:31;;;;;;;60.45;32.45;;;;;;;6.55;68.34;102867.81;5030595;28;20105;-57
2022/03/25 02:44:57;;;;;;;53.05;32.85;;;;;;;6.54;69.34;102866.09;5032289;28;20033;-57
2022/03/25 02:47:22;;;;;;;55.85;32.38;;;;;;;6.48;68.57;102863.81;5030785;28;20040;-57
2022/03/25 02:49:47;;;;;;;54.60;32.97;;;;;;;6.48;67.99;102863.81;5024708;28;20041;-57
2022/03/25 02:52:13;;;;;;;52.08;32.97;;;;;;;6.45;67.50;102863.97;5028596;28;20025;-57
2022/03/25 02:54:38;;;;;;;53.00;31.38;;;;;;;6.45;67.94;102864.81;5028370;28;20170;-57
2022/03/25 02:57:04;;;;;;;50.00;31.77;;;;;;;6.45;67.45;102862.19;5030198;28;20036;-58
2022/03/25 02:59:29;;;;;;;54.10;31.83;;;;;;;6.46;66.85;102870.94;5027116;28;20029;-57
2022/03/25 03:01:55;;;;;;;51.70;32.70;;;;;;;6.44;66.97;102868.41;5028066;28;20056;-57
2022/03/25 03:04:20;;;;;;;51.70;31.98;;;;;;;6.37;65.83;102866.19;5028321;28;20044;-57
2022/03/25 03:06:45;;;;;;;56.70;33.13;;;;;;;6.36;65.81;102864.47;5028134;28;20083;-57
2022/03/25 03:09:11;;;;;;;54.10;31.58;;;;;;;6.38;66.72;102862.59;5028160;28;20025;-56
2022/03/25 03:11:37;;;;;;;51.17;32.20;;;;;;;6.39;66.49;102874.84;5029390;28;20510;-56
2022/03/25 03:14:03;;;;;;;52.90;32.05;;;;;;;6.32;66.06;102869.91;5031356;28;20572;-56
2022/03/25 03:16:28;;;;;;;51.08;31.23;;;;;;;6.30;66.25;102863.88;5028750;28;20040;-57
2022/03/25 03:18:54;;;;;;;54.17;31.77;;;;;;;6.30;65.74;102871.78;5028618;28;20045;-57
2022/03/25 03:21:23;;;;;;;53.78;31.50;;;;;;;6.25;65.67;102875.59;5029072;28;20696;-57
2022/03/25 03:23:49;;;;;;;54.28;31.63;;;;;;;6.28;65.92;102871.00;5030164;28;20667;-57
2022/03/25 03:26:15;;;;;;;56.17;31.52;;;;;;;6.24;66.21;102871.25;5027436;28;20048;-57
2022/03/25 03:28:40;;;;;;;49.85;30.65;;;;;;;6.27;66.33;102871.94;5029623;28;20029;-56
2022/03/25 03:31:05;;;;;;;55.67;32.53;;;;;;;6.20;66.82;102870.56;5030405;28;20029;-57
2022/03/25 03:33:30;;;;;;;53.25;32.05;;;;;;;6.15;68.15;102862.06;5027715;28;20033;-57
2022/03/25 03:35:55;;;;;;;50.90;30.88;;;;;;;6.14;67.29;102865.63;5023090;28;20029;-57
2022/03/25 03:38:21;;;;;;;50.08;31.75;;;;;;;6.05;67.74;102867.84;5028493;28;20036;-57
2022/03/25 03:40:46;;;;;;;51.38;31.83;;;;;;;6.01;67.25;102871.53;5028481;28;20179;-56
2022/03/25 03:43:11;;;;;;;53.70;31.58;;;;;;;5.94;66.49;102870.16;5030813;28;20026;-57
2022/03/25 03:45:37;;;;;;;51.83;31.55;;;;;;;5.97;66.49;102871.78;5029727;28;20107;-56
2022/03/25 03:48:02;;;;;;;55.28;31.92;;;;;;;5.88;66.89;102859.94;5029053;28;20132;-56
2022/03/25 03:50:27;;;;;;;52.80;31.27;;;;;;;5.85;68.26;102860.09;5029036;28;20040;-57
2022/03/25 03:52:52;;;;;;;50.53;31.55;;;;;;;5.70;68.18;102869.63;5029325;28;20366;-56
2022/03/25 03:55:18;;;;;;;54.08;31.67;;;;;;;5.65;68.32;102869.88;5029215;28;20056;-57
2022/03/25 03:57:44;;;;;;;53.58;31.92;;;;;;;5.64;69.15;102873.44;5030948;28;20045;-57
2022/03/25 04:00:12;;;;;;;50.83;30.63;;;;;;;5.55;69.02;102863.38;5026303;28;20404;-56
2022/03/25 04:02:37;;;;;;;51.95;30.92;;;;;;;5.49;68.56;102870.63;5029544;28;20113;-56
2022/03/25 04:05:04;;;;;;;53.63;32.08;;;;;;;5.50;68.35;102872.38;5029067;28;20033;-57
2022/03/25 04:07:30;;;;;;;51.13;31.90;;;;;;;5.56;68.68;102867.69;5028353;28;20451;-57
2022/03/25 04:09:56;;;;;;;55.30;32.05;;;;;;;5.47;68.63;102864.63;5030888;28;20117;-56
2022/03/25 04:12:21;;;;;;;52.28;32.25;;;;;;;5.46;68.50;102869.94;5033699;28;20448;-57
2022/03/25 04:14:47;;;;;;;52.63;31.83;;;;;;;5.37;69.88;102866.00;5035583;28;20037;-56
2022/03/25 04:17:13;;;;;;;55.25;31.75;;;;;;;5.25;68.81;102862.22;5032016;28;20030;-57
2022/03/25 04:19:38;;;;;;;54.10;31.98;;;;;;;5.18;68.95;102869.56;5027556;28;20029;-57
2022/03/25 04:22:03;;;;;;;56.20;31.57;;;;;;;5.08;69.66;102871.78;5032984;28;20115;-56
2022/03/25 04:24:29;;;;;;;57.17;32.23;;;;;;;4.95;70.29;102879.41;5032417;28;20036;-57
2022/03/25 04:26:54;;;;;;;56.38;31.15;;;;;;;4.96;70.21;102880.28;5033130;28;20431;-56
2022/03/25 04:29:19;;;;;;;49.77;30.90;;;;;;;5.02;70.07;102881.78;5033037;28;20030;-57
2022/03/25 04:31:45;;;;;;;55.50;31.50;;;;;;;5.01;69.41;102882.66;5034263;28;20523;-56
2022/03/25 04:34:10;;;;;;;52.63;31.70;;;;;;;4.96;69.44;102877.63;5027727;28;20076;-56
2022/03/25 04:36:35;;;;;;;52.73;32.30;;;;;;;5.01;70.47;102887.94;5032007;28;20038;-57
2022/03/25 04:39:01;;;;;;;55.73;31.93;;;;;;;5.02;70.47;102881.78;5032304;28;20083;-57
2022/03/25 04:41:26;;;;;;;55.20;32.97;;;;;;;4.96;70.46;102883.75;5029263;28;20059;-58
2022/03/25 04:43:51;;;;;;;55.07;32.10;;;;;;;4.96;70.26;102878.50;5032331;28;20381;-56
2022/03/25 04:46:17;;;;;;;56.50;32.20;;;;;;;4.94;69.68;102890.84;5033982;28;20048;-57
2022/03/25 04:48:43;;;;;;;54.87;32.83;;;;;;;4.86;70.00;102882.50;5030154;28;20030;-57
2022/03/25 04:51:08;;;;;;;57.30;32.83;;;;;;;4.85;70.29;102886.06;5029540;28;20033;-58
2022/03/25 04:53:34;;;;;;;59.50;32.63;;;;;;;4.85;70.10;102881.63;5029852;28;20045;-57
2022/03/25 04:55:59;;;;;;;57.67;32.47;;;;;;;4.84;71.39;102884.34;5031739;28;20076;-56
2022/03/25 04:58:25;;;;;;;54.23;32.57;;;;;;;4.74;71.02;102883.91;5028573;28;20033;-57
2022/03/25 05:00:50;;;;;;;56.53;33.27;;;;;;;4.68;70.16;102892.09;5029638;28;20052;-57
2022/03/25 05:03:17;;;;;;;53.70;32.40;;;;;;;4.66;71.89;102886.94;5030018;28;20033;-56
2022/03/25 05:05:43;;;;;;;56.63;32.57;;;;;;;4.68;71.70;102892.94;5029473;28;20048;-57
2022/03/25 05:08:09;;;;;;;55.47;33.03;;;;;;;4.72;71.89;102888.41;5031233;28;20148;-57
2022/03/25 05:10:35;;;;;;;58.73;33.50;;;;;;;4.70;71.69;102888.47;5030390;28;20053;-56
2022/03/25 05:13:00;;;;;;;55.83;32.70;;;;;;;4.68;71.62;102886.81;5032871;28;20146;-57
2022/03/25 05:15:25;;;;;;;56.30;32.63;;;;;;;4.58;71.15;102891.66;5033088;28;20052;-57
2022/03/25 05:17:51;;;;;;;55.53;33.03;;;;;;;4.56;70.59;102898.78;5032100;28;20052;-57
2022/03/25 05:20:18;;;;;;;56.97;33.10;;;;;;;4.53;71.14;102896.28;5029823;28;20039;-57
2022/03/25 05:22:45;;;;;;;57.27;32.80;;;;;;;4.43;70.24;102896.72;5023284;28;20029;-56
2022/03/25 05:25:10;;;;;;;54.87;32.87;;;;;;;4.40;70.63;102894.22;5020032;28;20069;-57
2022/03/25 05:28:02;;;;;;;54.53;32.70;;;;;;;4.40;70.39;102896.00;5042293;28;20480;-57
2022/03/25 05:30:30;;;;;;;54.93;33.20;;;;;;;4.34;71.32;102897.13;5024541;28;20152;-57
2022/03/25 05:32:55;;;;;;;57.37;32.23;;;;;;;4.36;70.94;102894.44;5023601;28;20503;-56
2022/03/25 05:35:22;;;;;;;55.77;33.63;;;;;;;4.35;71.23;102898.84;5026822;28;20039;-57
2022/03/25 05:37:49;;;;;;;60.63;34.07;;;;;;;4.32;71.59;102893.72;5024635;28;20087;-57
2022/03/25 05:40:16;;;;;;;56.30;32.60;;;;;;;4.40;71.35;102904.72;5023915;28;20070;-57
2022/03/25 05:42:42;;;;;;;51.00;32.53;;;;;;;4.39;71.85;102903.03;5023712;28;20029;-58
2022/03/25 05:45:08;;;;;;;61.27;32.97;;;;;;;4.39;71.30;102903.03;5024278;28;20034;-56
2022/03/25 05:47:36;;;;;;;58.30;33.93;;;;;;;4.37;71.81;102907.50;5023607;28;20099;-57
2022/03/25 05:50:03;;;;;;;56.73;33.90;;;;;;;4.36;71.17;102912.81;5023518;28;20033;-57
2022/03/25 05:52:28;;;;;;;57.87;33.77;;;;;;;4.33;71.30;102910.34;5026382;28;20048;-54
2022/03/25 05:54:54;;;;;;;63.00;34.30;;;;;;;4.30;71.54;102911.34;5019177;28;20029;-55
2022/03/25 05:57:21;;;;;;;62.27;33.87;;;;;;;4.31;71.47;102908.63;5024390;28;20160;-58
2022/03/25 05:59:47;;;;;;;61.50;34.73;;;;;;;4.25;71.88;102908.91;5021806;28;20405;-58
2022/03/25 06:02:13;;;;;;;57.67;34.43;;;;;;;4.28;71.34;102918.41;5018856;28;20033;-57
2022/03/25 06:04:39;;;;;;;57.50;34.63;;;;;;;4.28;71.70;102913.16;5018778;28;20028;-58
2022/03/25 06:07:04;;;;;;;59.13;34.67;;;;;;;4.30;72.24;102913.97;5018837;28;20029;-58
2022/03/25 06:09:30;;;;;;;57.10;34.00;;;;;;;4.36;72.71;102921.56;5022314;28;20113;-57
2022/03/25 06:11:56;;;;;;;56.57;33.53;;;;;;;4.36;72.27;102921.56;5028497;28;20030;-57
2022/03/25 06:14:21;;;;;;;65.17;35.60;;;;;;;4.33;71.84;102916.44;5027872;28;20033;-58
2022/03/25 06:16:47;;;;;;;61.73;35.53;;;;;;;4.37;72.19;102923.25;5025503;28;20025;-57
2022/03/25 06:19:13;;;;;;;62.23;36.70;;;;;;;4.29;72.31;102928.84;5028647;28;20028;-57
2022/03/25 06:21:38;;;;;;;61.00;35.30;;;;;;;4.33;72.53;102932.19;5027322;28;20028;-58
2022/03/25 06:24:04;;;;;;;62.63;35.87;;;;;;;4.36;72.44;102931.22;5029059;28;20036;-57
2022/03/25 06:26:30;;;;;;;64.17;37.27;;;;;;;4.40;72.93;102933.63;5031504;28;20551;-58
2022/03/25 06:28:55;;;;;;;64.13;37.80;;;;;;;4.43;73.02;102927.38;5042804;28;20586;-58
2022/03/25 06:31:20;;;;;;;65.90;37.70;;;;;;;4.44;73.05;102929.94;5030711;28;20428;-57
2022/03/25 06:33:45;;;;;;;64.63;38.50;;;;;;;4.39;73.13;102934.56;5028498;28;20029;-58
2022/03/25 06:36:13;;;;;;;62.67;37.27;;;;;;;4.44;73.50;102947.47;5030513;28;20075;-55
2022/03/25 06:38:39;;;;;;;71.03;39.47;;;;;;;4.46;73.64;102952.66;5028519;28;20088;-55
2022/03/25 06:41:05;;;;;;;66.27;38.77;;;;;;;4.47;73.68;102955.22;5032625;28;20056;-55
2022/03/25 06:43:30;;;;;;;69.87;37.50;;;;;;;4.51;73.54;102945.44;5031912;28;20029;-55
2022/03/25 06:45:55;;;;;;;71.10;38.87;;;;;;;4.60;73.05;102950.28;5029944;28;21165;-58
2022/03/25 06:48:21;;;;;;;74.47;42.20;;;;;;;4.61;73.01;102941.47;5030741;28;20033;-58
2022/03/25 06:50:47;;;;;;;68.70;40.10;;;;;;;4.77;73.27;102940.75;5029564;28;20033;-57
2022/03/25 06:53:13;;;;;;;72.80;41.70;;;;;;;4.82;72.52;102941.38;5024762;28;20384;-58
2022/03/25 06:55:40;;;;;;;73.57;42.17;;;;;;;4.92;72.34;102940.03;5031247;28;20033;-58
2022/03/25 06:58:05;;;;;;;78.03;43.37;;;;;;;5.02;72.70;102947.50;5028894;28;20033;-57
2022/03/25 07:00:31;;;;;;;73.33;42.50;;;;;;;5.08;72.21;102940.16;5029038;28;20087;-57
2022/03/25 07:02:57;;;;;;;69.67;42.23;;;;;;;5.17;71.43;102938.03;5027960;28;20025;-57
2022/03/25 07:05:24;;;;;;;75.10;45.47;;;;;;;5.29;71.04;102953.22;5030573;28;20036;-57
2022/03/25 07:07:49;;;;;;;72.57;44.57;;;;;;;5.38;71.15;102952.75;5028660;28;20053;-57
2022/03/25 07:10:15;;;;;;;79.53;45.20;;;;;;;5.47;71.88;102956.72;5028563;28;20451;-57
2022/03/25 07:12:44;;;;;;;82.75;45.08;;;;;;;5.52;70.45;102954.72;5026578;28;20050;-57
2022/03/25 07:15:10;;;;;;;78.33;46.47;;;;;;;5.66;70.66;102961.06;5028775;28;20033;-57
2022/03/25 07:17:37;;;;;;;74.85;45.10;;;;;;;5.74;70.37;102958.06;5035632;28;20060;-57
2022/03/25 07:20:03;;;;;;;75.78;45.50;;;;;;;5.82;70.48;102960.31;5016655;28;20061;-57
2022/03/25 07:22:29;;;;;;;79.40;46.00;;;;;;;5.89;71.17;102966.97;5030372;28;20060;-58
2022/03/25 07:24:54;;;;;;;81.50;47.08;;;;;;;5.96;71.02;102968.34;5030779;28;20102;-57
2022/03/25 07:27:19;;;;;;;89.47;47.95;;;;;;;6.00;70.35;102969.91;5027904;28;20033;-57
2022/03/25 07:29:45;;;;;;;80.22;46.65;;;;;;;6.09;69.90;102971.25;5028272;28;20029;-58
2022/03/25 07:32:10;;;;;;;77.03;47.72;;;;;;;6.13;70.42;102971.94;5028037;28;20048;-57
2022/03/25 07:34:37;;;;;;;79.07;48.05;;;;;;;6.19;71.04;102963.72;5027909;28;20056;-57
2022/03/25 07:37:03;;;;;;;77.72;47.80;;;;;;;6.29;69.12;102975.50;5029812;28;20065;-57
2022/03/25 07:39:29;;;;;;;81.00;47.85;;;;;;;6.36;68.89;102978.63;5029235;28;20026;-57
2022/03/25 07:41:54;;;;;;;80.00;48.35;;;;;;;6.41;69.25;102983.69;5026195;28;20029;-57
2022/03/25 07:44:19;;;;;;;82.03;47.72;;;;;;;6.51;70.75;102984.03;5030916;28;20124;-57
2022/03/25 07:46:45;;;;;;;81.75;48.90;;;;;;;6.52;70.30;102976.03;5029247;28;20033;-57
2022/03/25 07:49:10;;;;;;;82.18;49.33;;;;;;;6.64;69.77;102986.84;5041749;28;20029;-57
2022/03/25 07:51:35;;;;;;;83.47;48.85;;;;;;;6.71;68.47;102996.16;5029651;28;20035;-58
2022/03/25 07:54:01;;;;;;;77.20;47.92;;;;;;;6.75;68.73;103000.31;5026992;28;20464;-57
2022/03/25 07:56:26;;;;;;;81.18;48.25;;;;;;;6.86;68.35;103002.41;5025214;28;20060;-57
2022/03/25 07:58:52;;;;;;;86.95;50.40;;;;;;;6.92;68.44;102998.56;5026427;28;20076;-56
2022/03/25 08:01:17;;;;;;;82.20;50.72;;;;;;;6.96;67.49;103008.84;5026378;28;20029;-57
2022/03/25 08:03:42;;;;;;;82.47;49.92;;;;;;;7.04;67.56;103008.44;5027104;28;20037;-57
2022/03/25 08:06:09;;;;;;;83.13;49.67;;;;;;;7.15;67.54;103009.63;5031418;28;20038;-57
2022/03/25 08:08:35;;;;;;;86.15;51.35;;;;;;;7.24;67.53;103011.75;5025197;28;20108;-57
2022/03/25 08:11:00;;;;;;;84.40;52.28;;;;;;;7.33;67.39;103019.16;5028718;28;20022;-57
2022/03/25 08:13:25;;;;;;;84.50;50.63;;;;;;;7.44;67.12;103015.09;5026954;28;20493;-57
2022/03/25 08:15:51;;;;;;;80.95;46.65;;;;;;;7.51;65.23;103011.16;5027016;28;20030;-57
2022/03/25 08:18:16;;;;;;;76.45;45.80;;;;;;;7.57;64.38;103016.06;5029652;28;20516;-57
2022/03/25 08:20:44;;;;;;;74.22;46.30;;;;;;;7.69;64.03;103016.31;5029865;28;20037;-57
2022/03/25 08:27:48;;;;;;;76.85;46.60;;;;;;;7.76;64.63;103009.72;5029213;28;20061;-58
2022/03/25 08:28:45;;;;;;;73.60;44.03;;;;;;;7.96;62.89;103028.84;5028733;28;20803;-58
2022/03/25 08:31:10;;;;;;;73.85;45.08;;;;;;;8.04;62.69;103029.25;5028710;28;20108;-58
2022/03/25 08:33:35;;;;;;;82.43;46.22;;;;;;;8.12;62.28;103027.00;5029390;28;21844;-58
2022/03/25 08:36:01;;;;;;;79.13;46.17;;;;;;;8.17;61.83;103024.06;5029104;28;20148;-57
2022/03/25 08:38:26;;;;;;;70.70;45.50;;;;;;;8.31;62.05;103036.47;5028117;28;20048;-58
2022/03/25 08:40:51;;;;;;;76.35;45.03;;;;;;;8.39;60.38;103028.91;5029930;28;20108;-58
2022/03/25 08:43:16;;;;;;;76.00;44.72;;;;;;;8.41;60.64;103037.63;5029715;28;20037;-58
2022/03/25 08:45:42;;;;;;;71.28;43.35;;;;;;;8.50;60.55;103035.34;5028682;28;20096;-58
2022/03/25 08:48:07;;;;;;;73.18;43.67;;;;;;;8.58;58.87;103035.75;5025653;28;20080;-57
2022/03/25 08:50:32;;;;;;;77.30;44.17;;;;;;;8.64;58.14;103024.84;5023442;28;20034;-58
2022/03/25 08:52:58;;;;;;;70.15;42.22;;;;;;;8.77;59.44;103026.72;5023121;28;20115;-58
2022/03/25 08:55:23;;;;;;;69.30;39.80;;;;;;;8.87;59.40;103027.81;5026243;28;20041;-58
2022/03/25 08:57:49;;;;;;;70.72;40.63;;;;;;;8.95;57.46;103036.16;5031709;28;20095;-58
2022/03/25 09:00:17;;;;;;;68.43;41.42;;;;;;;9.02;56.92;103037.44;5026598;28;20037;-57
2022/03/25 09:02:43;;;;;;;67.68;41.45;;;;;;;9.05;57.06;103040.84;5031296;28;20419;-58
2022/03/25 09:05:10;;;;;;;73.28;42.55;;;;;;;9.09;58.16;103042.34;5033433;28;20044;-57
2022/03/25 09:07:37;;;;;;;71.68;41.00;;;;;;;9.12;58.18;103042.16;5033346;28;20040;-57
2022/03/25 09:10:10;;;;;;;67.13;42.30;;;;;;;9.27;58.70;103046.47;5032639;28;20033;-57
2022/03/25 09:12:36;;;;;;;75.78;44.38;;;;;;;9.36;58.92;103041.53;5027422;28;20046;-58
2022/03/25 09:15:05;;;;;;;72.63;41.55;;;;;;;9.47;57.62;103046.97;5029924;28;20038;-58
2022/03/25 09:17:30;;;;;;;69.72;42.15;;;;;;;9.57;56.76;103046.41;5029835;28;20120;-57
2022/03/25 09:19:56;;;;;;;71.72;42.15;;;;;;;9.65;56.18;103044.06;5027219;28;20110;-57
2022/03/25 09:22:21;;;;;;;72.60;42.28;;;;;;;9.69;56.22;103050.88;5026654;28;20645;-57
2022/03/25 09:24:47;;;;;;;64.10;39.55;;;;;;;9.81;55.42;103047.41;5029539;28;20410;-57
2022/03/25 09:27:12;;;;;;;66.50;38.45;;;;;;;9.91;54.30;103054.75;5033362;28;20056;-58
2022/03/25 09:29:38;;;;;;;62.25;35.47;;;;;;;9.94;52.48;103042.16;5032492;28;20056;-57
2022/03/25 09:32:04;;;;;;;61.67;36.03;;;;;;;10.00;53.21;103048.84;5033328;28;20094;-57
2022/03/25 09:37:13;;;;;;;62.30;36.25;;;;;;;10.22;52.37;103052.69;5032573;28;20048;-57
2022/03/25 09:39:38;;;;;;;61.00;36.95;;;;;;;10.26;53.17;103048.88;5032296;28;20033;-57
2022/03/25 09:42:04;;;;;;;62.65;38.88;;;;;;;10.47;54.95;103051.03;5032459;28;20468;-57
2022/03/25 09:44:30;;;;;;;62.05;37.63;;;;;;;10.58;53.01;103047.63;5032818;28;20100;-57
2022/03/25 09:46:56;;;;;;;61.00;36.90;;;;;;;10.56;52.74;103045.09;5026960;28;20083;-58
2022/03/25 09:49:21;;;;;;;64.95;35.22;;;;;;;10.66;51.74;103039.16;5032676;28;20037;-57
2022/03/25 09:51:47;;;;;;;57.35;34.50;;;;;;;10.76;50.53;103042.84;5031930;28;20033;-57
2022/03/25 09:54:14;;;;;;;57.05;35.55;;;;;;;10.79;50.44;103033.81;5032248;28;20034;-57
2022/03/25 09:56:40;;;;;;;57.05;33.75;;;;;;;10.87;49.58;103042.91;5031574;28;20021;-57
2022/03/25 09:59:07;;;;;;;56.80;34.30;;;;;;;10.89;48.96;103041.03;5029641;28;20040;-57
2022/03/25 10:01:33;;;;;;;55.70;31.23;;;;;;;10.90;47.91;103042.72;5018374;28;20045;-57
2022/03/25 10:03:58;;;;;;;59.85;33.53;;;;;;;10.93;49.05;103035.47;5030209;28;20033;-57
2022/03/25 10:06:24;;;;;;;51.50;32.75;;;;;;;11.08;49.48;103039.69;5031894;28;20484;-57
2022/03/25 10:08:57;;;;;;;53.40;32.13;;;;;;;11.10;48.25;103043.09;5031047;28;20037;-57
2022/03/25 10:11:30;;;;;;;53.58;32.35;;;;;;;11.20;48.16;103042.44;5033487;28;20167;-57
2022/03/25 10:14:14;;;;;;;50.47;29.48;;;;;;;11.28;47.34;103040.06;5032156;28;20056;-58
2022/03/25 10:16:45;;;;;;;50.00;29.23;;;;;;;11.34;46.18;103036.94;5027122;28;20108;-56
2022/03/25 10:19:11;;;;;;;48.83;29.88;;;;;;;11.47;49.08;103033.38;5024908;28;20090;-57
2022/03/25 10:21:57;;;;;;;47.70;27.92;;;;;;;11.55;47.55;103039.00;5031120;28;20029;-58
2022/03/25 10:24:40;;;;;;;44.90;27.63;;;;;;;11.57;47.00;103027.31;5032389;28;20034;-58
2022/03/25 10:27:07;;;;;;;44.70;27.40;;;;;;;11.69;45.81;103036.16;5020969;28;20033;-57
2022/03/25 10:29:34;;;;;;;47.63;27.33;;;;;;;11.71;45.10;103031.56;5032491;28;20114;-57
2022/03/25 10:32:08;;;;;;;44.05;25.65;;;;;;;11.75;43.91;103036.66;5031942;28;20030;-57
2022/03/25 10:34:38;;;;;;;47.72;25.13;;;;;;;11.76;44.47;103028.59;5029349;28;20033;-57
2022/03/25 10:37:09;;;;;;;49.47;27.85;;;;;;;11.94;44.85;103030.81;5028240;28;20026;-57
2022/03/25 10:39:35;;;;;;;47.17;25.92;;;;;;;12.02;44.16;103027.53;5027755;28;20025;-57
2022/03/25 10:42:02;;;;;;;43.08;27.00;;;;;;;12.11;44.96;103033.03;5032438;28;20045;-58
2022/03/25 10:44:41;;;;;;;43.83;26.40;;;;;;;12.21;45.61;103027.88;5033012;28;20499;-57
2022/03/25 10:47:28;;;;;;;45.75;26.40;;;;;;;12.19;44.93;103024.47;5032284;28;20423;-58
2022/03/25 10:49:54;;;;;;;46.80;26.25;;;;;;;12.33;44.24;103019.91;5030428;28;20104;-57
2022/03/25 10:52:24;;;;;;;47.00;25.50;;;;;;;12.36;44.12;103025.84;5031292;28;20029;-57
2022/03/25 10:54:51;;;;;;;42.63;24.73;;;;;;;12.37;42.69;103018.69;5032396;28;20108;-57
2022/03/25 10:57:17;;;;;;;45.72;24.15;;;;;;;12.34;41.84;103016.28;5031481;28;20056;-58
2022/03/25 10:59:59;;;;;;;40.72;24.08;;;;;;;12.52;43.21;103019.31;5030814;28;20029;-57
2022/03/25 11:02:24;;;;;;;43.20;25.65;;;;;;;12.60;41.01;103022.22;5027168;28;20056;-58
2022/03/25 11:04:50;;;;;;;38.63;24.00;;;;;;;12.68;42.01;103018.94;5030715;28;20492;-57
2022/03/25 11:07:16;;;;;;;47.08;26.60;;;;;;;12.66;42.65;103020.88;5029650;28;20075;-57
2022/03/25 11:09:42;;;;;;;40.00;26.20;;;;;;;12.92;44.42;103015.28;5032058;28;20090;-57
2022/03/25 11:12:11;;;;;;;44.10;25.63;;;;;;;12.88;41.64;103009.34;5031905;28;20411;-58
2022/03/25 11:14:36;;;;;;;45.33;27.60;;;;;;;13.01;42.69;103014.56;5025430;28;20038;-57
2022/03/25 11:17:03;;;;;;;43.33;27.58;;;;;;;13.04;42.31;103011.63;5029889;28;20038;-58
2022/03/25 11:19:29;;;;;;;47.05;27.88;;;;;;;13.07;42.40;103012.38;5030542;28;20512;-57